sensor_id;sensor_type;location;lat;lon;timestamp;P1;durP1;ratioP1;P2;durP2;ratioP2
76105;SDS011;64832;45.274;5.880;2022-10-31T14:39:24;6.63;;;2.95;;
76105;SDS011;64832;45.274;5.880;2022-10-31T14:47:15;8.63;;;3.00;;
76105;SDS011;64832;45.274;5.880;2022-10-31T14:52:47;9.40;;;2.88;;
76105;SDS011;64832;45.274;5.880;2022-10-31T14:55:15;6.60;;;2.97;;
76105;SDS011;64832;45.274;5.880;2022-10-31T14:57:49;7.40;;;2.95;;
76105;SDS011;64832;45.274;5.880;2022-10-31T15:00:20;6.55;;;3.00;;
76105;SDS011;64832;45.274;5.880;2022-10-31T15:05:28;8.15;;;3.25;;
76105;SDS011;64832;45.274;5.880;2022-10-31T15:07:54;7.53;;;3.17;;
76105;SDS011;64832;45.274;5.880;2022-10-31T15:12:48;13.23;;;2.90;;
76105;SDS011;64832;45.274;5.880;2022-10-31T15:15:21;6.15;;;3.15;;
76105;SDS011;64832;45.274;5.880;2022-10-31T15:17:58;9.23;;;3.10;;
76105;SDS011;64832;45.274;5.880;2022-10-31T15:20:28;10.05;;;3.17;;
76105;SDS011;64832;45.274;5.880;2022-10-31T15:22:55;7.97;;;3.17;;
76105;SDS011;64832;45.274;5.880;2022-10-31T15:25:23;10.73;;;3.70;;
76105;SDS011;64832;45.274;5.880;2022-10-31T15:27:51;8.35;;;3.10;;
76105;SDS011;64832;45.274;5.880;2022-10-31T15:30:25;10.23;;;3.45;;
76105;SDS011;64832;45.274;5.880;2022-10-31T15:32:51;11.65;;;3.72;;
76105;SDS011;64832;45.274;5.880;2022-10-31T15:35:22;9.18;;;3.35;;
76105;SDS011;64832;45.274;5.880;2022-10-31T15:37:51;10.13;;;3.60;;
76105;SDS011;64832;45.274;5.880;2022-10-31T15:40:18;25.75;;;4.20;;
76105;SDS011;64832;45.274;5.880;2022-10-31T15:42:46;10.07;;;3.65;;
76105;SDS011;64832;45.274;5.880;2022-10-31T15:45:24;10.60;;;3.72;;
76105;SDS011;64832;45.274;5.880;2022-10-31T15:48:02;16.58;;;4.00;;
76105;SDS011;64832;45.274;5.880;2022-10-31T15:50:39;9.70;;;3.42;;
76105;SDS011;64832;45.274;5.880;2022-10-31T15:53:14;7.82;;;3.22;;
76105;SDS011;64832;45.274;5.880;2022-10-31T15:56:05;7.32;;;2.85;;
76105;SDS011;64832;45.274;5.880;2022-10-31T15:58:33;7.07;;;3.33;;
76105;SDS011;64832;45.274;5.880;2022-10-31T16:01:27;9.70;;;2.95;;
76105;SDS011;64832;45.274;5.880;2022-10-31T16:06:37;10.48;;;3.10;;
76105;SDS011;64832;45.274;5.880;2022-10-31T16:09:03;7.13;;;2.67;;
76105;SDS011;64832;45.274;5.880;2022-10-31T16:11:48;6.00;;;2.58;;
76105;SDS011;64832;45.274;5.880;2022-10-31T16:14:17;7.30;;;3.00;;
76105;SDS011;64832;45.274;5.880;2022-10-31T16:16:46;7.80;;;2.65;;
76105;SDS011;64832;45.274;5.880;2022-10-31T16:19:24;5.22;;;2.63;;
76105;SDS011;64832;45.274;5.880;2022-10-31T16:21:54;7.20;;;2.70;;
76105;SDS011;64832;45.274;5.880;2022-10-31T16:24:44;4.93;;;2.42;;
76105;SDS011;64832;45.274;5.880;2022-10-31T16:27:16;8.55;;;3.22;;
76105;SDS011;64832;45.274;5.880;2022-10-31T16:29:53;5.57;;;3.00;;
76105;SDS011;64832;45.274;5.880;2022-10-31T16:35:26;6.18;;;2.78;;
76105;SDS011;64832;45.274;5.880;2022-10-31T16:37:59;6.22;;;2.85;;
76105;SDS011;64832;45.274;5.880;2022-10-31T16:40:25;6.68;;;2.45;;
76105;SDS011;64832;45.274;5.880;2022-10-31T16:42:50;4.13;;;2.60;;
76105;SDS011;64832;45.274;5.880;2022-10-31T16:45:26;6.60;;;3.05;;
76105;SDS011;64832;45.274;5.880;2022-10-31T16:47:53;6.03;;;2.58;;
76105;SDS011;64832;45.274;5.880;2022-10-31T16:50:26;5.45;;;2.58;;
76105;SDS011;64832;45.274;5.880;2022-10-31T16:52:52;5.50;;;2.53;;
76105;SDS011;64832;45.274;5.880;2022-10-31T16:55:18;5.50;;;2.72;;
76105;SDS011;64832;45.274;5.880;2022-10-31T16:57:50;5.38;;;2.65;;
76105;SDS011;64832;45.274;5.880;2022-10-31T17:00:21;4.43;;;2.67;;
76105;SDS011;64832;45.274;5.880;2022-10-31T17:02:48;6.15;;;2.30;;
76105;SDS011;64832;45.274;5.880;2022-10-31T17:05:19;4.90;;;2.60;;
76105;SDS011;64832;45.274;5.880;2022-10-31T17:07:46;4.97;;;2.22;;
76105;SDS011;64832;45.274;5.880;2022-10-31T17:10:13;7.22;;;2.78;;
76105;SDS011;64832;45.274;5.880;2022-10-31T17:12:40;5.22;;;2.40;;
76105;SDS011;64832;45.274;5.880;2022-10-31T17:15:18;4.47;;;2.70;;
76105;SDS011;64832;45.274;5.880;2022-10-31T17:17:44;4.85;;;2.40;;
76105;SDS011;64832;45.274;5.880;2022-10-31T17:20:14;6.03;;;2.40;;
76105;SDS011;64832;45.274;5.880;2022-10-31T17:22:43;7.68;;;2.45;;
76105;SDS011;64832;45.274;5.880;2022-10-31T17:25:11;6.13;;;2.58;;
76105;SDS011;64832;45.274;5.880;2022-10-31T17:27:40;7.80;;;2.53;;
76105;SDS011;64832;45.274;5.880;2022-10-31T17:30:05;4.88;;;2.65;;
76105;SDS011;64832;45.274;5.880;2022-10-31T17:32:31;4.13;;;2.17;;
76105;SDS011;64832;45.274;5.880;2022-10-31T17:34:56;5.03;;;2.47;;
76105;SDS011;64832;45.274;5.880;2022-10-31T17:37:21;5.78;;;2.75;;
76105;SDS011;64832;45.274;5.880;2022-10-31T17:39:47;3.65;;;2.60;;
76105;SDS011;64832;45.274;5.880;2022-10-31T17:42:12;4.18;;;2.70;;
76105;SDS011;64832;45.274;5.880;2022-10-31T17:44:37;7.15;;;2.90;;
76105;SDS011;64832;45.274;5.880;2022-10-31T17:47:03;4.35;;;2.63;;
76105;SDS011;64832;45.274;5.880;2022-10-31T17:49:28;5.15;;;2.53;;
76105;SDS011;64832;45.274;5.880;2022-10-31T17:51:53;6.10;;;2.50;;
76105;SDS011;64832;45.274;5.880;2022-10-31T17:54:19;8.90;;;2.55;;
76105;SDS011;64832;45.274;5.880;2022-10-31T17:56:46;5.35;;;2.30;;
76105;SDS011;64832;45.274;5.880;2022-10-31T17:59:12;5.15;;;2.35;;
76105;SDS011;64832;45.274;5.880;2022-10-31T18:01:38;3.55;;;2.60;;
76105;SDS011;64832;45.274;5.880;2022-10-31T18:04:03;5.18;;;2.70;;
76105;SDS011;64832;45.274;5.880;2022-10-31T18:06:29;4.40;;;2.60;;
76105;SDS011;64832;45.274;5.880;2022-10-31T18:08:54;5.80;;;2.60;;
76105;SDS011;64832;45.274;5.880;2022-10-31T18:11:22;3.95;;;2.10;;
76105;SDS011;64832;45.274;5.880;2022-10-31T18:13:52;6.80;;;3.20;;
76105;SDS011;64832;45.274;5.880;2022-10-31T18:16:19;4.95;;;2.40;;
76105;SDS011;64832;45.274;5.880;2022-10-31T18:18:49;3.33;;;2.13;;
76105;SDS011;64832;45.274;5.880;2022-10-31T18:21:18;5.35;;;2.65;;
76105;SDS011;64832;45.274;5.880;2022-10-31T18:23:44;4.50;;;2.65;;
76105;SDS011;64832;45.274;5.880;2022-10-31T18:26:09;3.88;;;2.55;;
76105;SDS011;64832;45.274;5.880;2022-10-31T18:28:36;6.43;;;2.67;;
76105;SDS011;64832;45.274;5.880;2022-10-31T18:31:01;3.70;;;2.53;;
76105;SDS011;64832;45.274;5.880;2022-10-31T18:33:28;3.85;;;2.35;;
76105;SDS011;64832;45.274;5.880;2022-10-31T18:35:53;7.75;;;2.70;;
76105;SDS011;64832;45.274;5.880;2022-10-31T18:38:19;3.63;;;2.30;;
76105;SDS011;64832;45.274;5.880;2022-10-31T18:40:45;2.60;;;2.03;;
76105;SDS011;64832;45.274;5.880;2022-10-31T18:43:10;2.97;;;2.17;;
76105;SDS011;64832;45.274;5.880;2022-10-31T18:45:36;4.68;;;2.30;;
76105;SDS011;64832;45.274;5.880;2022-10-31T18:48:02;3.58;;;2.30;;
76105;SDS011;64832;45.274;5.880;2022-10-31T18:50:28;3.90;;;2.38;;
76105;SDS011;64832;45.274;5.880;2022-10-31T18:52:53;4.70;;;2.17;;
76105;SDS011;64832;45.274;5.880;2022-10-31T18:55:19;4.07;;;2.28;;
76105;SDS011;64832;45.274;5.880;2022-10-31T18:57:44;3.90;;;2.22;;
76105;SDS011;64832;45.274;5.880;2022-10-31T19:00:11;3.63;;;2.50;;
76105;SDS011;64832;45.274;5.880;2022-10-31T19:02:38;2.70;;;2.20;;
76105;SDS011;64832;45.274;5.880;2022-10-31T19:05:03;7.40;;;2.72;;
76105;SDS011;64832;45.274;5.880;2022-10-31T19:07:29;7.95;;;2.28;;
76105;SDS011;64832;45.274;5.880;2022-10-31T19:09:55;4.60;;;2.45;;
76105;SDS011;64832;45.274;5.880;2022-10-31T19:12:20;5.50;;;2.15;;
76105;SDS011;64832;45.274;5.880;2022-10-31T19:14:46;4.00;;;2.50;;
76105;SDS011;64832;45.274;5.880;2022-10-31T19:17:12;6.50;;;2.60;;
76105;SDS011;64832;45.274;5.880;2022-10-31T19:19:38;4.57;;;2.67;;
76105;SDS011;64832;45.274;5.880;2022-10-31T19:22:03;5.35;;;2.78;;
76105;SDS011;64832;45.274;5.880;2022-10-31T19:24:29;4.35;;;2.95;;
76105;SDS011;64832;45.274;5.880;2022-10-31T19:26:54;4.07;;;2.53;;
76105;SDS011;64832;45.274;5.880;2022-10-31T19:29:20;5.40;;;2.85;;
76105;SDS011;64832;45.274;5.880;2022-10-31T19:31:45;5.60;;;3.03;;
76105;SDS011;64832;45.274;5.880;2022-10-31T19:34:12;6.22;;;2.90;;
76105;SDS011;64832;45.274;5.880;2022-10-31T19:36:37;3.78;;;2.40;;
76105;SDS011;64832;45.274;5.880;2022-10-31T19:39:02;4.85;;;2.95;;
76105;SDS011;64832;45.274;5.880;2022-10-31T19:41:28;5.00;;;3.08;;
76105;SDS011;64832;45.274;5.880;2022-10-31T19:43:54;5.20;;;2.83;;
76105;SDS011;64832;45.274;5.880;2022-10-31T19:46:20;5.28;;;2.40;;
76105;SDS011;64832;45.274;5.880;2022-10-31T19:48:47;4.35;;;2.45;;
76105;SDS011;64832;45.274;5.880;2022-10-31T19:51:13;4.32;;;2.80;;
76105;SDS011;64832;45.274;5.880;2022-10-31T19:53:40;5.47;;;2.80;;
76105;SDS011;64832;45.274;5.880;2022-10-31T19:56:13;6.90;;;2.85;;
76105;SDS011;64832;45.274;5.880;2022-10-31T19:58:42;6.60;;;3.10;;
76105;SDS011;64832;45.274;5.880;2022-10-31T20:01:11;5.72;;;3.05;;
76105;SDS011;64832;45.274;5.880;2022-10-31T20:03:42;5.68;;;2.80;;
76105;SDS011;64832;45.274;5.880;2022-10-31T20:06:17;3.97;;;2.40;;
76105;SDS011;64832;45.274;5.880;2022-10-31T20:08:45;9.75;;;2.92;;
76105;SDS011;64832;45.274;5.880;2022-10-31T20:11:10;7.88;;;2.90;;
76105;SDS011;64832;45.274;5.880;2022-10-31T20:13:35;3.90;;;2.40;;
76105;SDS011;64832;45.274;5.880;2022-10-31T20:16:02;5.13;;;2.38;;
76105;SDS011;64832;45.274;5.880;2022-10-31T20:18:32;4.75;;;2.63;;
76105;SDS011;64832;45.274;5.880;2022-10-31T20:21:05;3.70;;;2.50;;
76105;SDS011;64832;45.274;5.880;2022-10-31T20:23:36;3.83;;;2.65;;
76105;SDS011;64832;45.274;5.880;2022-10-31T20:26:02;6.38;;;2.60;;
76105;SDS011;64832;45.274;5.880;2022-10-31T20:28:28;4.72;;;2.47;;
76105;SDS011;64832;45.274;5.880;2022-10-31T20:30:55;3.95;;;2.28;;
76105;SDS011;64832;45.274;5.880;2022-10-31T20:33:20;4.93;;;2.55;;
76105;SDS011;64832;45.274;5.880;2022-10-31T20:35:46;5.10;;;2.40;;
76105;SDS011;64832;45.274;5.880;2022-10-31T20:38:11;4.78;;;2.78;;
76105;SDS011;64832;45.274;5.880;2022-10-31T20:40:37;7.63;;;2.67;;
76105;SDS011;64832;45.274;5.880;2022-10-31T20:43:03;8.80;;;2.70;;
76105;SDS011;64832;45.274;5.880;2022-10-31T20:45:29;5.15;;;2.28;;
76105;SDS011;64832;45.274;5.880;2022-10-31T20:47:55;7.40;;;2.42;;
76105;SDS011;64832;45.274;5.880;2022-10-31T20:50:21;3.85;;;2.40;;
76105;SDS011;64832;45.274;5.880;2022-10-31T20:52:47;2.88;;;2.30;;
76105;SDS011;64832;45.274;5.880;2022-10-31T20:55:13;4.07;;;2.60;;
76105;SDS011;64832;45.274;5.880;2022-10-31T20:57:38;10.75;;;2.60;;
76105;SDS011;64832;45.274;5.880;2022-10-31T21:00:04;4.93;;;2.50;;
76105;SDS011;64832;45.274;5.880;2022-10-31T21:02:31;8.27;;;2.75;;
76105;SDS011;64832;45.274;5.880;2022-10-31T21:04:56;6.03;;;2.50;;
76105;SDS011;64832;45.274;5.880;2022-10-31T21:07:22;12.93;;;2.50;;
76105;SDS011;64832;45.274;5.880;2022-10-31T21:09:47;8.48;;;2.60;;
76105;SDS011;64832;45.274;5.880;2022-10-31T21:12:13;4.38;;;2.45;;
76105;SDS011;64832;45.274;5.880;2022-10-31T21:14:38;5.85;;;2.10;;
76105;SDS011;64832;45.274;5.880;2022-10-31T21:17:03;4.50;;;2.20;;
76105;SDS011;64832;45.274;5.880;2022-10-31T21:19:29;4.95;;;2.15;;
76105;SDS011;64832;45.274;5.880;2022-10-31T21:21:55;3.85;;;2.13;;
76105;SDS011;64832;45.274;5.880;2022-10-31T21:24:20;5.22;;;2.15;;
76105;SDS011;64832;45.274;5.880;2022-10-31T21:26:47;2.95;;;2.08;;
76105;SDS011;64832;45.274;5.880;2022-10-31T21:29:14;7.00;;;2.40;;
76105;SDS011;64832;45.274;5.880;2022-10-31T21:31:41;4.53;;;2.20;;
76105;SDS011;64832;45.274;5.880;2022-10-31T21:34:06;3.85;;;2.15;;
76105;SDS011;64832;45.274;5.880;2022-10-31T21:36:32;5.55;;;3.05;;
76105;SDS011;64832;45.274;5.880;2022-10-31T21:38:58;5.63;;;2.15;;
76105;SDS011;64832;45.274;5.880;2022-10-31T21:41:24;4.65;;;2.13;;
76105;SDS011;64832;45.274;5.880;2022-10-31T21:43:50;5.13;;;2.20;;
76105;SDS011;64832;45.274;5.880;2022-10-31T21:46:19;5.93;;;2.58;;
76105;SDS011;64832;45.274;5.880;2022-10-31T21:48:46;4.28;;;2.05;;
76105;SDS011;64832;45.274;5.880;2022-10-31T21:51:13;6.57;;;2.55;;
76105;SDS011;64832;45.274;5.880;2022-10-31T21:53:39;7.28;;;2.08;;
76105;SDS011;64832;45.274;5.880;2022-10-31T21:56:23;5.07;;;2.30;;
76105;SDS011;64832;45.274;5.880;2022-10-31T21:58:49;4.55;;;2.38;;
76105;SDS011;64832;45.274;5.880;2022-10-31T22:01:16;6.20;;;2.55;;
76105;SDS011;64832;45.274;5.880;2022-10-31T22:03:41;6.78;;;2.08;;
76105;SDS011;64832;45.274;5.880;2022-10-31T22:06:07;5.75;;;2.40;;
76105;SDS011;64832;45.274;5.880;2022-10-31T22:08:34;6.22;;;2.40;;
76105;SDS011;64832;45.274;5.880;2022-10-31T22:11:00;14.77;;;3.10;;
76105;SDS011;64832;45.274;5.880;2022-10-31T22:13:30;8.23;;;2.13;;
76105;SDS011;64832;45.274;5.880;2022-10-31T22:16:00;6.00;;;2.38;;
76105;SDS011;64832;45.274;5.880;2022-10-31T22:18:26;5.95;;;2.38;;
76105;SDS011;64832;45.274;5.880;2022-10-31T22:20:52;5.28;;;2.45;;
76105;SDS011;64832;45.274;5.880;2022-10-31T22:23:18;3.53;;;2.15;;
76105;SDS011;64832;45.274;5.880;2022-10-31T22:25:43;5.30;;;1.90;;
76105;SDS011;64832;45.274;5.880;2022-10-31T22:28:08;3.80;;;2.03;;
76105;SDS011;64832;45.274;5.880;2022-10-31T22:30:36;4.70;;;2.25;;
76105;SDS011;64832;45.274;5.880;2022-10-31T22:33:02;3.90;;;2.10;;
76105;SDS011;64832;45.274;5.880;2022-10-31T22:35:28;6.45;;;2.55;;
76105;SDS011;64832;45.274;5.880;2022-10-31T22:37:54;6.50;;;2.15;;
76105;SDS011;64832;45.274;5.880;2022-10-31T22:40:19;3.63;;;1.90;;
76105;SDS011;64832;45.274;5.880;2022-10-31T22:42:44;5.53;;;2.05;;
76105;SDS011;64832;45.274;5.880;2022-10-31T22:45:10;9.15;;;2.50;;
76105;SDS011;64832;45.274;5.880;2022-10-31T22:47:35;3.45;;;1.83;;
76105;SDS011;64832;45.274;5.880;2022-10-31T22:50:00;5.07;;;1.90;;
76105;SDS011;64832;45.274;5.880;2022-10-31T22:52:26;4.07;;;1.80;;
76105;SDS011;64832;45.274;5.880;2022-10-31T22:54:51;3.05;;;2.15;;
76105;SDS011;64832;45.274;5.880;2022-10-31T22:57:16;6.47;;;2.30;;
76105;SDS011;64832;45.274;5.880;2022-10-31T22:59:42;3.72;;;1.90;;
76105;SDS011;64832;45.274;5.880;2022-10-31T23:02:07;5.00;;;2.20;;
76105;SDS011;64832;45.274;5.880;2022-10-31T23:04:33;5.13;;;2.33;;
76105;SDS011;64832;45.274;5.880;2022-10-31T23:06:58;5.40;;;2.33;;
76105;SDS011;64832;45.274;5.880;2022-10-31T23:09:23;6.95;;;2.83;;
76105;SDS011;64832;45.274;5.880;2022-10-31T23:11:49;4.07;;;2.08;;
76105;SDS011;64832;45.274;5.880;2022-10-31T23:14:18;7.00;;;2.10;;
76105;SDS011;64832;45.274;5.880;2022-10-31T23:16:54;5.95;;;2.25;;
76105;SDS011;64832;45.274;5.880;2022-10-31T23:19:21;3.88;;;2.00;;
76105;SDS011;64832;45.274;5.880;2022-10-31T23:21:50;4.90;;;2.30;;
76105;SDS011;64832;45.274;5.880;2022-10-31T23:24:33;4.13;;;1.98;;
76105;SDS011;64832;45.274;5.880;2022-10-31T23:27:10;3.45;;;2.08;;
76105;SDS011;64832;45.274;5.880;2022-10-31T23:32:03;8.20;;;2.17;;
76105;SDS011;64832;45.274;5.880;2022-10-31T23:34:30;5.93;;;1.77;;
76105;SDS011;64832;45.274;5.880;2022-10-31T23:36:56;6.07;;;2.45;;
76105;SDS011;64832;45.274;5.880;2022-10-31T23:39:21;4.88;;;1.90;;
76105;SDS011;64832;45.274;5.880;2022-10-31T23:41:46;7.47;;;2.15;;
76105;SDS011;64832;45.274;5.880;2022-10-31T23:44:12;7.05;;;1.92;;
76105;SDS011;64832;45.274;5.880;2022-10-31T23:46:37;4.80;;;1.90;;
76105;SDS011;64832;45.274;5.880;2022-10-31T23:49:03;17.88;;;2.20;;
76105;SDS011;64832;45.274;5.880;2022-10-31T23:51:28;14.68;;;2.33;;
76105;SDS011;64832;45.274;5.880;2022-10-31T23:53:53;7.90;;;1.60;;
76105;SDS011;64832;45.274;5.880;2022-10-31T23:56:19;9.43;;;2.00;;
76105;SDS011;64832;45.274;5.880;2022-10-31T23:58:44;9.25;;;2.42;;
